Time;durP1;ratioP1;P1;durP2;ratioP2;P2;SDS_P1;SDS_P2;PMS_P1;PMS_P2;Temp;Humidity;BMP_temperature;BMP_pressure;BME280_temperature;BME280_humidity;BME280_pressure;Samples;Min_cycle;Max_cycle;Signal;HPM_P1;HPM_P2
2024/02/25 00:01:12;;;;;;;3.73;2.83;;;1.90;29.90;;;;;;5034167;28;20539;-68
2024/02/25 00:03:37;;;;;;;4.50;3.63;;;1.90;29.70;;;;;;5033826;28;20621;-68
2024/02/25 00:06:03;;;;;;;4.60;2.90;;;1.80;30.40;;;;;;5034219;28;20179;-67
2024/02/25 00:08:29;;;;;;;5.13;3.70;;;1.80;31.90;;;;;;5033930;28;20710;-68
2024/02/25 00:10:54;;;;;;;4.40;2.43;;;1.80;31.00;;;;;;5022458;28;20199;-69
2024/02/25 00:13:20;;;;;;;4.77;3.07;;;1.90;31.10;;;;;;5013767;28;20172;-68
2024/02/25 00:15:45;;;;;;;5.70;3.13;;;1.90;30.70;;;;;;5014093;28;20655;-68
2024/02/25 00:18:11;;;;;;;3.63;2.60;;;1.90;30.40;;;;;;4996510;28;20196;-69
2024/02/25 00:20:36;;;;;;;4.23;2.40;;;1.80;30.00;;;;;;5014210;28;20372;-68
2024/02/25 00:23:02;;;;;;;6.80;3.50;;;1.80;30.50;;;;;;5013532;28;20230;-69
2024/02/25 00:25:27;;;;;;;3.83;2.77;;;1.80;32.20;;;;;;5014004;28;20179;-69
2024/02/25 00:27:53;;;;;;;3.60;2.40;;;1.80;32.10;;;;;;4996272;28;20220;-68
2024/02/25 00:30:18;;;;;;;2.93;2.27;;;1.90;32.60;;;;;;5013714;28;20180;-68
2024/02/25 00:32:44;;;;;;;4.13;2.90;;;1.90;32.10;;;;;;5013498;28;20184;-68
2024/02/25 00:35:09;;;;;;;5.33;3.10;;;1.90;31.40;;;;;;5013669;28;20179;-69
2024/02/25 00:37:35;;;;;;;4.83;2.97;;;1.90;31.50;;;;;;5014217;28;20180;-69
2024/02/25 00:40:01;;;;;;;3.23;2.73;;;1.90;30.70;;;;;;5013789;28;20326;-69
2024/02/25 00:42:26;;;;;;;6.97;3.67;;;1.80;30.50;;;;;;5013226;28;20420;-69
2024/02/25 00:44:53;;;;;;;5.37;2.60;;;1.80;30.30;;;;;;5013453;28;20210;-69
2024/02/25 00:47:18;;;;;;;3.00;2.55;;;1.80;30.10;;;;;;5013643;28;20202;-70
2024/02/25 00:49:44;;;;;;;3.33;2.30;;;1.80;30.30;;;;;;5013212;28;20611;-69
2024/02/25 00:52:10;;;;;;;3.70;2.83;;;1.80;30.30;;;;;;5012380;28;20205;-69
2024/02/25 00:54:37;;;;;;;3.85;2.60;;;1.70;30.20;;;;;;4995608;28;20220;-68
2024/02/25 00:57:03;;;;;;;3.78;2.28;;;1.70;31.10;;;;;;5013146;28;20259;-69
2024/02/25 00:59:28;;;;;;;3.92;2.60;;;1.70;30.20;;;;;;5013041;28;20624;-69
2024/02/25 01:01:54;;;;;;;3.20;1.83;;;1.80;31.00;;;;;;5025623;28;20187;-68
2024/02/25 01:04:20;;;;;;;3.87;2.33;;;1.80;30.30;;;;;;5032620;28;20183;-69
2024/02/25 01:06:48;;;;;;;3.15;2.50;;;1.80;29.60;;;;;;5032975;28;20669;-69
2024/02/25 01:09:13;;;;;;;3.88;2.60;;;1.80;29.90;;;;;;5032641;28;20214;-69
2024/02/25 01:11:39;;;;;;;4.17;2.60;;;1.70;30.00;;;;;;5032392;28;20199;-69
2024/02/25 01:14:04;;;;;;;9.07;2.30;;;1.80;28.90;;;;;;5032362;28;20171;-69
2024/02/25 01:16:30;;;;;;;6.73;3.03;;;1.70;29.20;;;;;;5032790;28;20213;-69
2024/02/25 01:18:56;;;;;;;5.80;3.13;;;1.70;29.60;;;;;;5032745;28;20210;-69
2024/02/25 01:21:21;;;;;;;3.83;3.20;;;1.60;28.90;;;;;;5032726;28;20175;-70
2024/02/25 01:23:47;;;;;;;7.63;3.83;;;1.60;29.60;;;;;;5017348;28;20187;-69
2024/02/25 01:26:12;;;;;;;3.93;2.93;;;1.60;29.00;;;;;;5012693;28;20184;-69
2024/02/25 01:28:39;;;;;;;4.93;3.70;;;1.60;28.80;;;;;;5012581;28;20199;-69
2024/02/25 01:31:05;;;;;;;4.80;3.75;;;1.60;27.50;;;;;;4995001;28;20686;-70
2024/02/25 01:33:31;;;;;;;4.50;3.20;;;1.60;28.10;;;;;;5005099;28;20192;-70
2024/02/25 01:35:56;;;;;;;5.23;3.80;;;1.50;27.90;;;;;;5012532;28;20621;-69
2024/02/25 01:38:22;;;;;;;6.67;5.20;;;1.40;29.10;;;;;;5012561;28;20562;-69
2024/02/25 01:40:47;;;;;;;5.30;4.80;;;1.40;30.00;;;;;;5012363;28;20314;-69
2024/02/25 01:43:17;;;;;;;5.77;5.17;;;1.40;30.10;;;;;;5011949;28;20180;-68
2024/02/25 01:45:44;;;;;;;5.75;4.43;;;1.30;30.00;;;;;;5012277;28;20184;-68
2024/02/25 01:48:10;;;;;;;6.90;4.43;;;1.30;30.80;;;;;;5024106;28;20206;-69
2024/02/25 01:50:37;;;;;;;7.65;5.07;;;1.30;31.50;;;;;;5031893;28;20654;-69
2024/02/25 01:53:04;;;;;;;7.35;4.00;;;1.30;30.00;;;;;;5031693;28;20167;-69
2024/02/25 01:55:31;;;;;;;4.55;3.65;;;1.30;30.80;;;;;;5031737;28;20175;-69
2024/02/25 01:57:58;;;;;;;3.63;3.13;;;1.30;31.60;;;;;;5031523;28;20578;-69
2024/02/25 02:00:27;;;;;;;3.55;2.45;;;1.30;31.00;;;;;;5031861;28;20175;-69
2024/02/25 02:02:53;;;;;;;3.25;2.78;;;1.30;32.40;;;;;;5031589;28;20167;-68
2024/02/25 02:05:18;;;;;;;2.70;1.77;;;1.40;32.60;;;;;;5031999;28;20250;-71
2024/02/25 02:07:47;;;;;;;3.30;2.13;;;1.40;32.90;;;;;;5031665;28;20202;-69
2024/02/25 02:10:16;;;;;;;3.78;2.72;;;1.50;32.30;;;;;;5031880;28;20183;-68
2024/02/25 02:12:46;;;;;;;7.07;2.20;;;1.50;31.40;;;;;;5013811;28;20655;-69
2024/02/25 02:15:13;;;;;;;3.03;2.10;;;1.60;32.10;;;;;;5031680;28;20544;-69
2024/02/25 02:17:42;;;;;;;3.95;2.28;;;1.60;31.10;;;;;;5031683;28;20167;-70
2024/02/25 02:20:11;;;;;;;3.42;1.98;;;1.70;31.30;;;;;;5031487;28;20709;-69
2024/02/25 02:22:40;;;;;;;3.58;2.80;;;1.80;29.90;;;;;;5029716;28;20597;-67
2024/02/25 02:25:07;;;;;;;3.20;2.00;;;1.80;29.20;;;;;;5011930;28;20317;-69
2024/02/25 02:27:35;;;;;;;3.53;2.35;;;1.90;28.50;;;;;;4994418;28;20318;-69
2024/02/25 02:30:01;;;;;;;3.00;2.03;;;1.90;28.20;;;;;;5011674;28;20192;-69
2024/02/25 02:32:28;;;;;;;7.20;2.50;;;1.90;27.80;;;;;;5011209;28;20203;-69
2024/02/25 02:34:53;;;;;;;5.03;2.63;;;1.90;27.50;;;;;;5011769;28;20168;-68
2024/02/25 02:37:19;;;;;;;3.30;2.00;;;2.00;26.70;;;;;;5011611;28;20539;-68
2024/02/25 02:39:44;;;;;;;4.77;2.77;;;1.90;26.40;;;;;;4993880;28;20200;-68
2024/02/25 02:42:11;;;;;;;4.17;2.23;;;2.00;26.50;;;;;;5011279;28;20245;-69
2024/02/25 02:44:37;;;;;;;3.65;2.60;;;2.00;26.50;;;;;;5011827;28;20184;-68
2024/02/25 02:47:03;;;;;;;3.80;2.40;;;2.10;26.20;;;;;;5020808;28;20195;-68
2024/02/25 02:49:28;;;;;;;3.17;2.53;;;2.10;25.20;;;;;;5011400;28;20533;-68
2024/02/25 02:51:58;;;;;;;4.70;2.57;;;2.10;25.90;;;;;;5011030;28;20208;-68
2024/02/25 02:54:23;;;;;;;3.88;2.28;;;2.10;24.90;;;;;;5011382;28;20168;-68
2024/02/25 02:56:49;;;;;;;3.37;2.80;;;2.20;24.20;;;;;;5011501;28;20187;-68
2024/02/25 02:59:16;;;;;;;4.27;2.70;;;2.20;23.70;;;;;;5011314;28;20250;-68
2024/02/25 03:01:41;;;;;;;4.85;3.00;;;2.20;23.80;;;;;;5011237;28;20175;-68
2024/02/25 03:04:08;;;;;;;4.07;2.33;;;2.30;23.20;;;;;;5011039;28;20190;-68
2024/02/25 03:06:33;;;;;;;4.38;2.75;;;2.30;22.60;;;;;;5011485;28;20181;-69
2024/02/25 03:08:59;;;;;;;2.90;1.80;;;2.30;22.60;;;;;;5011663;28;20215;-68
2024/02/25 03:11:24;;;;;;;3.30;2.47;;;2.30;22.60;;;;;;5011393;28;20691;-68
2024/02/25 03:13:50;;;;;;;2.90;2.17;;;2.30;22.60;;;;;;5012219;28;20175;-68
2024/02/25 03:16:16;;;;;;;3.78;2.22;;;2.40;22.60;;;;;;5015431;28;20172;-68
2024/02/25 03:18:42;;;;;;;5.10;2.40;;;2.40;21.80;;;;;;5015343;28;20572;-68
2024/02/25 03:21:07;;;;;;;10.63;3.30;;;2.30;22.60;;;;;;5015123;28;20180;-68
2024/02/25 03:23:33;;;;;;;2.73;1.87;;;2.40;21.90;;;;;;5015057;28;20438;-69
2024/02/25 03:25:59;;;;;;;3.50;2.90;;;2.40;21.60;;;;;;5030724;28;20219;-68
2024/02/25 03:28:25;;;;;;;3.53;2.50;;;2.40;21.20;;;;;;5034747;28;20222;-69
2024/02/25 03:30:51;;;;;;;4.17;2.23;;;2.40;21.60;;;;;;5034871;28;20230;-68
2024/02/25 03:33:16;;;;;;;2.90;2.17;;;2.40;21.20;;;;;;5016636;28;20188;-69
2024/02/25 03:35:41;;;;;;;5.10;2.50;;;2.40;20.70;;;;;;5015069;28;20715;-69
2024/02/25 03:38:07;;;;;;;4.17;2.37;;;2.40;20.50;;;;;;5014900;28;20204;-69
2024/02/25 03:40:32;;;;;;;8.37;2.40;;;2.50;20.30;;;;;;5014686;28;20176;-69
2024/02/25 03:42:58;;;;;;;2.30;1.73;;;2.50;19.70;;;;;;5014537;28;20179;-69
2024/02/25 03:45:23;;;;;;;3.33;2.13;;;2.40;19.50;;;;;;5014854;28;20187;-68
2024/02/25 03:47:49;;;;;;;2.37;1.83;;;2.40;19.30;;;;;;5015337;28;20191;-68
2024/02/25 03:50:15;;;;;;;3.30;2.17;;;2.50;19.10;;;;;;5029626;28;20191;-68
2024/02/25 03:52:40;;;;;;;4.37;2.77;;;2.50;18.50;;;;;;5034441;28;20232;-68
2024/02/25 03:55:06;;;;;;;3.23;2.10;;;2.50;18.50;;;;;;5034622;28;20904;-69
2024/02/25 03:57:32;;;;;;;3.63;2.00;;;2.50;18.50;;;;;;5034583;28;20582;-68
2024/02/25 03:59:58;;;;;;;3.40;1.70;;;2.40;18.50;;;;;;5034434;28;20455;-68
2024/02/25 04:02:24;;;;;;;2.83;2.13;;;2.50;18.50;;;;;;5016100;28;20191;-67
2024/02/25 04:04:49;;;;;;;3.70;1.90;;;2.50;18.50;;;;;;5034350;28;20258;-67
2024/02/25 04:07:15;;;;;;;3.90;2.10;;;2.60;18.10;;;;;;5034349;28;20417;-67
2024/02/25 04:09:41;;;;;;;2.90;2.47;;;2.70;16.60;;;;;;5034193;28;20769;-68
2024/02/25 04:12:10;;;;;;;2.90;2.28;;;2.80;15.90;;;;;;5033737;28;20204;-68
2024/02/25 04:14:36;;;;;;;2.85;2.13;;;2.90;14.80;;;;;;5033855;28;20677;-67
2024/02/25 04:17:02;;;;;;;3.00;1.70;;;3.00;14.20;;;;;;5034094;28;20181;-68
2024/02/25 04:19:28;;;;;;;2.25;1.85;;;3.10;13.30;;;;;;5033974;28;20660;-68
2024/02/25 04:21:53;;;;;;;3.50;2.13;;;3.20;12.10;;;;;;5016191;28;20234;-69
2024/02/25 04:24:19;;;;;;;2.43;2.00;;;3.20;11.40;;;;;;5027408;28;20205;-69
2024/02/25 04:26:47;;;;;;;3.20;1.90;;;3.20;10.50;;;;;;5012792;28;20815;-69
2024/02/25 04:29:13;;;;;;;3.33;1.90;;;3.10;10.40;;;;;;5015015;28;20213;-69
2024/02/25 04:31:43;;;;;;;2.00;1.43;;;3.10;10.80;;;;;;5010807;28;20206;-69
2024/02/25 04:34:09;;;;;;;2.67;1.35;;;3.00;10.80;;;;;;5013743;28;20169;-69
2024/02/25 04:36:35;;;;;;;3.25;2.03;;;3.00;10.80;;;;;;5013849;28;20173;-69
2024/02/25 04:39:00;;;;;;;2.80;1.87;;;3.00;11.20;;;;;;5013728;28;20205;-69
2024/02/25 04:41:26;;;;;;;3.33;1.67;;;3.00;11.30;;;;;;5013951;28;20197;-70
2024/02/25 04:43:52;;;;;;;2.97;2.13;;;2.90;11.50;;;;;;5013453;28;20186;-69
2024/02/25 04:46:18;;;;;;;3.00;2.17;;;2.90;11.90;;;;;;5013728;28;20190;-69
2024/02/25 04:48:43;;;;;;;3.33;1.93;;;2.90;12.30;;;;;;5013475;28;20211;-69
2024/02/25 04:51:09;;;;;;;2.93;2.13;;;2.90;12.20;;;;;;5013711;28;20717;-69
2024/02/25 04:53:36;;;;;;;2.73;1.70;;;2.80;12.30;;;;;;5013405;28;20633;-69
2024/02/25 04:56:02;;;;;;;2.40;1.55;;;2.90;12.10;;;;;;5013662;28;20256;-69
2024/02/25 04:58:28;;;;;;;2.90;1.60;;;2.80;12.10;;;;;;5013549;28;20579;-70
2024/02/25 05:00:53;;;;;;;4.23;1.60;;;2.80;12.20;;;;;;5013348;28;20243;-69
2024/02/25 05:03:19;;;;;;;3.57;1.87;;;2.80;11.70;;;;;;5013055;28;20180;-69
2024/02/25 05:05:44;;;;;;;5.00;2.10;;;2.80;11.80;;;;;;5013878;28;20299;-69
2024/02/25 05:08:10;;;;;;;2.90;1.60;;;2.80;12.00;;;;;;5013672;28;20642;-69
2024/02/25 05:10:37;;;;;;;3.00;2.00;;;2.80;11.50;;;;;;5013285;28;20201;-69
2024/02/25 05:13:02;;;;;;;3.20;1.80;;;2.80;11.70;;;;;;5013159;28;20180;-69
2024/02/25 05:15:28;;;;;;;3.87;1.97;;;2.80;12.10;;;;;;5013224;28;20182;-69
2024/02/25 05:17:54;;;;;;;3.47;1.63;;;2.80;11.90;;;;;;5013115;28;20538;-69
2024/02/25 05:20:20;;;;;;;3.00;1.90;;;2.70;12.00;;;;;;5013279;28;20454;-69
2024/02/25 05:22:46;;;;;;;3.80;2.20;;;2.70;12.70;;;;;;5012453;28;20187;-69
2024/02/25 05:25:14;;;;;;;2.88;2.13;;;2.60;13.30;;;;;;5012928;28;20180;-69
2024/02/25 05:27:40;;;;;;;4.10;2.25;;;2.60;13.50;;;;;;5012966;28;20677;-68
2024/02/25 05:30:06;;;;;;;2.83;2.13;;;2.50;14.00;;;;;;5012880;28;20291;-69
2024/02/25 05:32:31;;;;;;;3.70;2.43;;;2.40;14.20;;;;;;5012411;28;20219;-69
2024/02/25 05:34:57;;;;;;;2.77;1.87;;;2.40;14.60;;;;;;5012912;28;20427;-70
2024/02/25 05:37:22;;;;;;;4.87;2.60;;;2.30;14.60;;;;;;5012977;28;20247;-70
2024/02/25 05:39:51;;;;;;;4.23;2.97;;;2.30;15.00;;;;;;5013056;28;20215;-69
2024/02/25 05:42:16;;;;;;;3.08;2.25;;;2.20;15.40;;;;;;5012661;28;20187;-69
2024/02/25 05:44:42;;;;;;;5.93;3.20;;;2.20;16.10;;;;;;5013541;28;20176;-69
2024/02/25 05:47:07;;;;;;;6.17;2.43;;;2.10;16.40;;;;;;5030257;28;20480;-69
2024/02/25 05:49:33;;;;;;;3.20;2.00;;;2.20;16.30;;;;;;5032347;28;20210;-70
2024/02/25 05:51:58;;;;;;;4.00;1.70;;;2.20;15.90;;;;;;5032334;28;20213;-69
2024/02/25 05:54:24;;;;;;;2.93;1.87;;;2.30;15.20;;;;;;5032337;28;20258;-68
2024/02/25 05:56:49;;;;;;;3.53;1.80;;;2.30;15.10;;;;;;5032544;28;20182;-69
2024/02/25 05:59:15;;;;;;;4.73;2.40;;;2.30;15.20;;;;;;5032026;28;20281;-69
2024/02/25 06:01:47;;;;;;;3.93;2.23;;;2.20;15.50;;;;;;5032152;28;20188;-69
2024/02/25 06:04:13;;;;;;;2.97;2.10;;;2.20;15.00;;;;;;5031794;28;20242;-69
2024/02/25 06:06:39;;;;;;;4.07;1.85;;;2.20;15.30;;;;;;4989583;28;20183;-70
2024/02/25 06:09:05;;;;;;;3.30;2.20;;;2.20;16.10;;;;;;4995374;28;20351;-69
2024/02/25 06:11:31;;;;;;;3.58;2.15;;;2.20;15.70;;;;;;4994511;28;20675;-70
2024/02/25 06:13:56;;;;;;;3.53;2.63;;;2.30;15.50;;;;;;5011946;28;20176;-69
2024/02/25 06:16:22;;;;;;;3.90;1.87;;;2.30;15.40;;;;;;5012293;28;20169;-69
2024/02/25 06:18:48;;;;;;;4.27;2.07;;;2.30;15.30;;;;;;5011956;28;20203;-69
2024/02/25 06:21:14;;;;;;;3.88;2.50;;;2.40;14.50;;;;;;5012450;28;20185;-69
2024/02/25 06:23:39;;;;;;;6.27;2.00;;;2.40;14.30;;;;;;5012784;28;20223;-69
2024/02/25 06:26:06;;;;;;;4.80;2.20;;;2.50;13.70;;;;;;5020193;28;20188;-70
2024/02/25 06:28:32;;;;;;;6.05;1.90;;;2.50;12.60;;;;;;5031336;28;20302;-70
2024/02/25 06:30:57;;;;;;;3.28;2.10;;;2.60;11.40;;;;;;5022350;28;20208;-69
2024/02/25 06:33:23;;;;;;;3.13;1.60;;;2.70;10.10;;;;;;5012061;28;20570;-68
2024/02/25 06:35:50;;;;;;;3.30;1.80;;;2.80;9.80;;;;;;5011927;28;20179;-69
2024/02/25 06:38:15;;;;;;;4.28;1.75;;;2.90;9.10;;;;;;5011944;28;20192;-70
2024/02/25 06:40:41;;;;;;;7.17;1.80;;;3.00;8.50;;;;;;5012013;28;20636;-69
2024/02/25 06:43:12;;;;;;;2.53;1.53;;;3.10;7.90;;;;;;5011703;28;20180;-70
2024/02/25 06:45:38;;;;;;;2.80;1.67;;;3.10;7.50;;;;;;5011966;28;20206;-72
2024/02/25 06:48:04;;;;;;;2.43;1.53;;;3.20;7.10;;;;;;5011562;28;20190;-70
2024/02/25 06:50:29;;;;;;;2.50;1.60;;;3.20;6.30;;;;;;5011885;28;20173;-70
2024/02/25 06:52:55;;;;;;;2.57;1.80;;;3.30;6.10;;;;;;5011621;28;20711;-71
2024/02/25 06:55:20;;;;;;;6.50;2.00;;;3.30;5.80;;;;;;5011988;28;20169;-70
2024/02/25 06:57:46;;;;;;;2.63;1.60;;;3.40;5.00;;;;;;5011874;28;20172;-71
2024/02/25 07:00:12;;;;;;;5.03;1.50;;;3.50;4.30;;;;;;5018475;28;20295;-70
2024/02/25 07:02:38;;;;;;;2.73;1.63;;;3.50;3.60;;;;;;5011476;28;20232;-70
2024/02/25 07:05:04;;;;;;;2.33;1.40;;;3.60;2.40;;;;;;5011673;28;20416;-70
2024/02/25 07:07:30;;;;;;;2.97;1.60;;;3.70;1.90;;;;;;5011721;28;20227;-71
2024/02/25 07:09:57;;;;;;;3.77;2.07;;;3.80;2.00;;;;;;5011490;28;20219;-70
2024/02/25 07:12:23;;;;;;;3.30;1.80;;;4.00;1.00;;;;;;5011387;28;20287;-71
2024/02/25 07:14:49;;;;;;;6.07;1.77;;;4.20;1.00;;;;;;5011608;28;20224;-71
2024/02/25 07:17:14;;;;;;;2.00;1.27;;;4.30;1.00;;;;;;5011502;28;20557;-70
2024/02/25 07:19:44;;;;;;;2.63;1.67;;;4.60;1.00;;;;;;5011188;28;20198;-71
2024/02/25 07:22:10;;;;;;;3.22;1.80;;;4.80;1.00;;;;;;5010875;28;20223;-70
2024/02/25 07:24:37;;;;;;;2.73;1.67;;;5.00;1.00;;;;;;5011509;28;20256;-70
2024/02/25 07:27:03;;;;;;;2.93;1.23;;;5.30;1.00;;;;;;5011588;28;20228;-71
2024/02/25 07:29:28;;;;;;;2.67;1.43;;;5.70;1.00;;;;;;5011626;28;20438;-71
2024/02/25 07:31:54;;;;;;;2.33;1.33;;;5.90;1.00;;;;;;5011352;28;20545;-71
2024/02/25 07:34:20;;;;;;;3.10;1.47;;;6.20;1.00;;;;;;5011461;28;20181;-71
2024/02/25 07:36:46;;;;;;;2.10;1.27;;;6.50;1.00;;;;;;5011736;28;20639;-71
2024/02/25 07:39:11;;;;;;;2.80;1.20;;;6.70;1.00;;;;;;5011379;28;20253;-71
2024/02/25 07:41:37;;;;;;;2.83;1.10;;;6.90;1.00;;;;;;5011422;28;20176;-72
2024/02/25 07:44:03;;;;;;;2.10;1.10;;;7.00;1.00;;;;;;5011733;28;20184;-72
2024/02/25 07:46:29;;;;;;;2.70;1.13;;;7.10;1.00;;;;;;5011433;28;20514;-70
2024/02/25 07:48:54;;;;;;;2.37;1.40;;;7.30;1.00;;;;;;5028408;28;20207;-70
2024/02/25 07:51:20;;;;;;;3.97;1.60;;;7.40;1.00;;;;;;5030896;28;20464;-70
2024/02/25 07:53:49;;;;;;;2.40;1.40;;;7.60;1.00;;;;;;5030856;28;20181;-71
2024/02/25 07:56:19;;;;;;;2.17;1.30;;;7.80;1.00;;;;;;5030978;28;20178;-70
2024/02/25 07:58:44;;;;;;;1.80;1.00;;;7.80;1.00;;;;;;5031089;28;21035;-72
2024/02/25 08:01:10;;;;;;;2.67;1.30;;;7.70;1.00;;;;;;5034088;28;20422;-69
2024/02/25 08:03:44;;;;;;;2.50;1.33;;;;;;;;;;5022825;28;20194;-70
2024/02/25 08:06:09;;;;;;;2.77;1.40;;;7.70;1.00;;;;;;5014848;28;20180;-70
2024/02/25 08:08:35;;;;;;;2.43;1.23;;;7.80;1.00;;;;;;5016537;28;20468;-69
2024/02/25 08:11:01;;;;;;;2.73;1.37;;;7.90;1.00;;;;;;5032428;28;20211;-71
2024/02/25 08:13:26;;;;;;;4.03;1.40;;;7.90;1.00;;;;;;5014753;28;20544;-70
2024/02/25 08:15:52;;;;;;;5.67;3.53;;;7.80;1.00;;;;;;5014663;28;20645;-69
2024/02/25 08:18:17;;;;;;;5.00;3.10;;;7.50;1.00;;;;;;5014695;28;20251;-69
2024/02/25 08:20:43;;;;;;;4.03;2.50;;;7.30;1.00;;;;;;5016669;28;20203;-70
2024/02/25 08:23:08;;;;;;;3.40;2.33;;;7.30;1.00;;;;;;5014011;28;20676;-69
2024/02/25 08:25:34;;;;;;;4.20;2.63;;;6.90;1.00;;;;;;5009989;28;20260;-69
2024/02/25 08:27:59;;;;;;;3.73;2.63;;;6.80;1.00;;;;;;4993295;28;20192;-70
2024/02/25 08:30:25;;;;;;;3.80;2.30;;;7.00;1.00;;;;;;5030488;28;20187;-70
2024/02/25 08:32:51;;;;;;;5.03;2.10;;;6.80;1.00;;;;;;5014814;28;20684;-69
2024/02/25 08:35:17;;;;;;;3.77;2.97;;;6.70;1.00;;;;;;5010430;28;20426;-69
2024/02/25 08:37:43;;;;;;;5.20;2.40;;;6.70;1.00;;;;;;5010281;28;20210;-70
2024/02/25 08:40:08;;;;;;;4.03;2.67;;;6.70;1.00;;;;;;5009527;28;20229;-69
2024/02/25 08:42:34;;;;;;;5.03;2.80;;;6.70;1.00;;;;;;5029959;28;20433;-69
2024/02/25 08:44:59;;;;;;;6.77;2.87;;;6.80;1.00;;;;;;5012181;28;20724;-69
2024/02/25 08:47:25;;;;;;;4.20;2.40;;;6.80;1.00;;;;;;5029919;28;20264;-70
2024/02/25 08:49:51;;;;;;;3.83;2.80;;;6.70;1.00;;;;;;5029911;28;20207;-70
2024/02/25 08:52:17;;;;;;;3.73;2.73;;;6.80;1.00;;;;;;5009596;28;20273;-70
2024/02/25 08:54:43;;;;;;;3.70;2.73;;;6.70;1.00;;;;;;4991960;28;20198;-70
2024/02/25 08:57:09;;;;;;;3.13;2.50;;;6.80;1.00;;;;;;5010483;28;20415;-71
2024/02/25 08:59:35;;;;;;;5.00;3.70;;;7.00;1.00;;;;;;5009725;28;20234;-70
2024/02/25 09:02:04;;;;;;;3.40;2.27;;;7.10;1.00;;;;;;5009687;28;20443;-70
2024/02/25 09:04:30;;;;;;;2.97;2.07;;;7.50;1.00;;;;;;5009885;28;20447;-70
2024/02/25 09:06:57;;;;;;;3.10;2.63;;;7.70;1.00;;;;;;5010970;28;20431;-69
2024/02/25 09:09:23;;;;;;;4.20;2.53;;;7.60;1.00;;;;;;5057931;22;20500;-71
2024/02/25 09:11:52;;;;;;;4.93;2.60;;;7.90;1.00;;;;;;5019707;28;20986;-70
2024/02/25 09:14:18;;;;;;;3.97;2.20;;;7.90;1.00;;;;;;5015572;28;20992;-72
2024/02/25 09:16:44;;;;;;;6.23;2.80;;;7.90;1.00;;;;;;5049108;28;20433;-70
2024/02/25 09:19:10;;;;;;;2.67;2.00;;;8.00;1.00;;;;;;5049428;28;20693;-70
2024/02/25 09:21:36;;;;;;;3.87;2.57;;;7.90;1.00;;;;;;5012970;28;20183;-72
2024/02/25 09:24:02;;;;;;;4.03;2.20;;;8.00;1.00;;;;;;5011117;28;20482;-72
2024/02/25 09:26:28;;;;;;;3.60;2.73;;;8.10;1.00;;;;;;5016622;28;20183;-72
2024/02/25 09:28:53;;;;;;;3.47;2.50;;;8.30;1.00;;;;;;5031890;28;20450;-71
2024/02/25 09:31:19;;;;;;;3.30;2.60;;;8.50;1.00;;;;;;5049204;28;20207;-71
2024/02/25 09:33:52;;;;;;;3.27;2.30;;;8.80;1.00;;;;;;5031021;28;20185;-69
2024/02/25 09:36:23;;;;;;;6.33;2.97;;;8.80;1.00;;;;;;5031132;28;20201;-71
2024/02/25 09:38:52;;;;;;;5.10;3.00;;;8.90;1.00;;;;;;5049021;28;20524;-71
2024/02/25 09:41:28;;;;;;;3.43;2.40;;;9.10;1.00;;;;;;5038410;28;20445;-72
2024/02/25 09:43:55;;;;;;;2.70;1.90;;;9.30;1.00;;;;;;5028802;28;20447;-71
2024/02/25 09:46:23;;;;;;;3.07;2.47;;;9.50;1.00;;;;;;5011028;28;20444;-70
2024/02/25 09:48:53;;;;;;;2.80;2.00;;;9.50;1.00;;;;;;5026200;28;20867;-71
2024/02/25 09:51:22;;;;;;;3.47;2.17;;;9.50;1.00;;;;;;5018222;28;20468;-71
2024/02/25 09:53:50;;;;;;;5.20;3.63;;;9.60;1.00;;;;;;5028585;28;20992;-71
2024/02/25 09:56:16;;;;;;;3.30;2.77;;;9.70;1.00;;;;;;5046568;28;20420;-71
2024/02/25 09:58:43;;;;;;;3.87;2.53;;;9.70;1.00;;;;;;5039734;28;20505;-71
2024/02/25 10:01:08;;;;;;;4.20;3.17;;;9.60;1.00;;;;;;5048594;28;20458;-72
2024/02/25 10:03:34;;;;;;;4.00;2.50;;;9.70;1.00;;;;;;5069725;28;20428;-71
2024/02/25 10:06:00;;;;;;;5.90;2.83;;;9.60;1.00;;;;;;5047574;28;20269;-70
2024/02/25 10:08:25;;;;;;;3.90;2.83;;;9.80;1.00;;;;;;5036768;28;20538;-70
2024/02/25 10:10:52;;;;;;;5.13;3.20;;;9.90;1.00;;;;;;5039403;28;20198;-69
2024/02/25 10:13:18;;;;;;;3.10;2.80;;;10.00;1.00;;;;;;5050413;28;20522;-69
2024/02/25 10:15:43;;;;;;;4.13;2.70;;;10.30;1.00;;;;;;5048623;28;20427;-70
2024/02/25 10:18:11;;;;;;;3.93;2.80;;;10.50;1.00;;;;;;5046759;28;20428;-69
2024/02/25 10:20:36;;;;;;;5.73;3.03;;;10.90;1.00;;;;;;5030432;28;20594;-72
2024/02/25 10:23:07;;;;;;;2.40;1.90;;;11.10;1.00;;;;;;5046517;28;20419;-72
2024/02/25 10:25:32;;;;;;;3.57;2.57;;;10.80;1.00;;;;;;5047198;28;20185;-72
2024/02/25 10:28:11;;;;;;;3.97;3.00;;;10.50;1.00;;;;;;5029276;28;20527;-71
2024/02/25 10:30:37;;;;;;;3.60;2.70;;;10.40;1.00;;;;;;5027339;28;20189;-70
2024/02/25 10:33:15;;;;;;;5.03;3.00;;;10.30;1.00;;;;;;5047552;28;20920;-71
2024/02/25 10:35:42;;;;;;;2.93;2.63;;;10.10;1.00;;;;;;5051389;28;20231;-72
2024/02/25 10:38:11;;;;;;;3.37;2.33;;;10.10;1.00;;;;;;5034576;28;20421;-71
2024/02/25 10:40:37;;;;;;;3.20;2.30;;;10.20;1.00;;;;;;5050410;28;20908;-72
2024/02/25 10:43:03;;;;;;;3.20;2.30;;;10.20;1.00;;;;;;5051042;28;20412;-71
2024/02/25 10:45:32;;;;;;;3.67;2.17;;;10.10;1.00;;;;;;5051293;28;20548;-71
2024/02/25 10:47:58;;;;;;;5.40;2.43;;;10.30;1.00;;;;;;5033462;28;20475;-71
2024/02/25 10:50:25;;;;;;;3.03;2.67;;;10.50;1.00;;;;;;5051202;28;20835;-70
2024/02/25 10:52:52;;;;;;;2.60;2.30;;;10.60;1.00;;;;;;5050280;28;20711;-71
2024/02/25 10:55:19;;;;;;;3.20;1.93;;;10.60;1.00;;;;;;5033162;28;20424;-71
2024/02/25 10:57:45;;;;;;;2.30;1.87;;;10.70;1.00;;;;;;5051482;28;20420;-70
2024/02/25 11:00:11;;;;;;;3.00;2.10;;;10.60;1.00;;;;;;5050991;28;20452;-71
2024/02/25 11:02:38;;;;;;;2.20;1.83;;;10.80;1.00;;;;;;5050412;28;20425;-71
2024/02/25 11:05:04;;;;;;;2.60;2.33;;;10.90;1.00;;;;;;5033099;28;20429;-71
2024/02/25 11:07:33;;;;;;;3.23;2.40;;;11.00;1.00;;;;;;5051023;28;20419;-71
2024/02/25 11:09:59;;;;;;;2.30;1.83;;;10.90;1.00;;;;;;5012954;28;1099598;-71
2024/02/25 11:12:26;;;;;;;2.83;1.80;;;11.00;1.00;;;;;;5034550;28;20207;-71
2024/02/25 11:15:00;;;;;;;2.80;2.07;;;11.10;1.00;;;;;;5045233;28;20182;-71
2024/02/25 11:17:38;;;;;;;4.20;2.20;;;11.50;1.00;;;;;;5052956;28;20417;-72
2024/02/25 11:20:11;;;;;;;3.33;2.60;;;11.50;1.00;;;;;;5035224;28;20484;-71
2024/02/25 11:22:44;;;;;;;2.90;2.67;;;11.50;1.00;;;;;;5053844;28;20421;-71
2024/02/25 11:25:35;;;;;;;3.60;2.80;;;11.80;1.00;;;;;;5060216;28;20427;-72
2024/02/25 11:28:03;;;;;;;2.93;2.00;;;11.90;1.00;;;;;;5058240;28;20425;-70
2024/02/25 11:30:38;;;;;;;3.20;2.23;;;11.50;1.00;;;;;;5043565;28;20866;-73
2024/02/25 11:33:22;;;;;;;2.40;2.20;;;11.50;1.00;;;;;;5051221;28;20447;-71
2024/02/25 11:35:54;;;;;;;2.10;1.90;;;11.90;1.00;;;;;;5028856;28;20421;-72
2024/02/25 11:38:27;;;;;;;2.43;2.10;;;12.10;1.00;;;;;;5049550;28;20421;-73
2024/02/25 11:40:54;;;;;;;2.70;1.97;;;12.10;1.00;;;;;;5055373;28;20413;-72
2024/02/25 11:43:20;;;;;;;2.03;1.83;;;12.30;1.00;;;;;;5054822;28;20414;-71
2024/02/25 11:45:46;;;;;;;2.30;2.10;;;12.30;1.00;;;;;;5032093;28;20447;-72
2024/02/25 11:48:12;;;;;;;2.10;1.90;;;12.10;1.00;;;;;;5024858;28;20657;-70
2024/02/25 11:50:38;;;;;;;2.13;1.97;;;12.40;1.00;;;;;;5037339;28;20424;-72
2024/02/25 11:53:07;;;;;;;2.70;2.50;;;12.50;1.00;;;;;;5037116;28;20205;-72
2024/02/25 11:55:33;;;;;;;2.60;2.20;;;12.60;1.00;;;;;;5037874;28;20959;-72
2024/02/25 11:58:00;;;;;;;4.77;2.20;;;12.60;1.00;;;;;;5057426;28;20450;-72
2024/02/25 12:00:26;;;;;;;2.10;1.90;;;12.70;1.00;;;;;;5046743;28;20471;-74
2024/02/25 12:02:52;;;;;;;2.10;1.90;;;12.30;1.00;;;;;;5020627;28;20456;-72
2024/02/25 12:05:18;;;;;;;2.77;2.23;;;12.60;1.00;;;;;;5040366;28;20490;-71
2024/02/25 12:07:57;;;;;;;2.40;2.00;;;12.90;1.00;;;;;;5054879;28;20516;-70
2024/02/25 12:10:23;;;;;;;2.40;2.20;;;12.90;1.00;;;;;;5036379;28;20492;-75
2024/02/25 12:12:50;;;;;;;2.70;2.13;;;12.80;1.00;;;;;;5055405;28;20464;-72
2024/02/25 12:15:15;;;;;;;8.80;3.07;;;12.40;1.00;;;;;;5036806;28;20456;-72
2024/02/25 12:17:41;;;;;;;1.90;1.70;;;12.60;1.00;;;;;;5054966;28;20452;-72
2024/02/25 12:20:10;;;;;;;2.50;2.30;;;12.80;1.00;;;;;;5055092;28;20191;-72
2024/02/25 12:22:38;;;;;;;2.20;2.00;;;12.90;1.00;;;;;;5054218;28;20523;-72
2024/02/25 12:25:04;;;;;;;2.40;2.20;;;12.80;1.00;;;;;;5055024;28;20892;-72
2024/02/25 12:27:30;;;;;;;1.83;1.63;;;12.70;1.00;;;;;;5036787;28;20433;-72
2024/02/25 12:29:58;;;;;;;2.10;1.90;;;12.60;1.00;;;;;;5054672;28;20439;-71
2024/02/25 12:32:24;;;;;;;2.40;2.00;;;12.60;1.00;;;;;;5054386;28;20492;-72
2024/02/25 12:34:52;;;;;;;2.10;1.90;;;12.60;1.00;;;;;;5036328;28;20457;-72
2024/02/25 12:37:21;;;;;;;2.87;2.20;;;12.60;1.00;;;;;;5036377;28;20421;-72
2024/02/25 12:39:49;;;;;;;4.43;2.10;;;12.60;1.00;;;;;;5036521;28;20502;-71
2024/02/25 12:42:19;;;;;;;1.80;1.60;;;12.80;1.00;;;;;;5036274;28;20432;-73
2024/02/25 12:44:45;;;;;;;2.20;1.90;;;13.10;1.00;;;;;;5054655;28;20457;-72
2024/02/25 12:47:10;;;;;;;2.00;1.80;;;13.30;1.00;;;;;;5035028;28;20459;-72
2024/02/25 12:49:36;;;;;;;2.40;2.20;;;13.40;1.00;;;;;;5036909;28;20239;-72
2024/02/25 12:52:03;;;;;;;2.23;2.03;;;12.90;1.00;;;;;;5036398;28;20269;-72
2024/02/25 12:54:32;;;;;;;2.43;1.77;;;12.90;1.00;;;;;;5054695;28;20175;-72
2024/02/25 12:57:00;;;;;;;1.90;1.30;;;12.80;1.00;;;;;;5036832;28;20873;-72